sensor_id;sensor_type;location;lat;lon;timestamp;P1;durP1;ratioP1;P2;durP2;ratioP2
7511;SDS011;9999;48.780;9.146;2023-02-11T00:00:31;14.50;;;8.17;;
7511;SDS011;9999;48.780;9.146;2023-02-11T00:02:57;20.93;;;10.23;;
7511;SDS011;9999;48.780;9.146;2023-02-11T00:05:24;23.93;;;9.23;;
7511;SDS011;9999;48.780;9.146;2023-02-11T00:07:51;16.17;;;9.27;;
7511;SDS011;9999;48.780;9.146;2023-02-11T00:10:18;13.77;;;7.83;;
7511;SDS011;9999;48.780;9.146;2023-02-11T00:12:46;13.83;;;8.00;;
7511;SDS011;9999;48.780;9.146;2023-02-11T00:15:13;20.33;;;10.20;;
7511;SDS011;9999;48.780;9.146;2023-02-11T00:17:40;17.43;;;9.63;;
7511;SDS011;9999;48.780;9.146;2023-02-11T00:20:07;13.60;;;7.37;;
7511;SDS011;9999;48.780;9.146;2023-02-11T00:22:35;17.77;;;8.63;;
7511;SDS011;9999;48.780;9.146;2023-02-11T00:25:01;19.67;;;9.07;;
7511;SDS011;9999;48.780;9.146;2023-02-11T00:27:28;13.80;;;8.50;;
7511;SDS011;9999;48.780;9.146;2023-02-11T00:29:56;16.97;;;7.83;;
7511;SDS011;9999;48.780;9.146;2023-02-11T00:32:24;19.53;;;9.70;;
7511;SDS011;9999;48.780;9.146;2023-02-11T00:34:51;20.53;;;9.70;;
7511;SDS011;9999;48.780;9.146;2023-02-11T00:37:19;18.60;;;9.37;;
7511;SDS011;9999;48.780;9.146;2023-02-11T00:39:46;20.10;;;9.27;;
7511;SDS011;9999;48.780;9.146;2023-02-11T00:42:14;16.73;;;8.73;;
7511;SDS011;9999;48.780;9.146;2023-02-11T00:44:43;20.00;;;9.50;;
7511;SDS011;9999;48.780;9.146;2023-02-11T00:47:11;21.17;;;9.33;;
7511;SDS011;9999;48.780;9.146;2023-02-11T00:49:38;16.53;;;9.73;;
7511;SDS011;9999;48.780;9.146;2023-02-11T00:52:05;16.83;;;7.23;;
7511;SDS011;9999;48.780;9.146;2023-02-11T00:54:33;16.83;;;7.63;;
7511;SDS011;9999;48.780;9.146;2023-02-11T00:56:59;13.63;;;7.47;;
7511;SDS011;9999;48.780;9.146;2023-02-11T00:59:26;10.90;;;6.87;;
7511;SDS011;9999;48.780;9.146;2023-02-11T01:01:54;17.10;;;8.10;;
7511;SDS011;9999;48.780;9.146;2023-02-11T01:04:22;15.33;;;8.00;;
7511;SDS011;9999;48.780;9.146;2023-02-11T01:06:50;19.93;;;7.83;;
7511;SDS011;9999;48.780;9.146;2023-02-11T01:09:17;13.70;;;6.67;;
7511;SDS011;9999;48.780;9.146;2023-02-11T01:11:45;17.30;;;8.40;;
7511;SDS011;9999;48.780;9.146;2023-02-11T01:14:12;18.33;;;9.07;;
7511;SDS011;9999;48.780;9.146;2023-02-11T01:16:39;22.10;;;10.10;;
7511;SDS011;9999;48.780;9.146;2023-02-11T01:19:05;16.57;;;9.27;;
7511;SDS011;9999;48.780;9.146;2023-02-11T01:21:34;13.90;;;8.30;;
7511;SDS011;9999;48.780;9.146;2023-02-11T01:24:01;14.67;;;8.13;;
7511;SDS011;9999;48.780;9.146;2023-02-11T01:26:28;16.43;;;9.20;;
7511;SDS011;9999;48.780;9.146;2023-02-11T01:28:56;18.53;;;8.43;;
7511;SDS011;9999;48.780;9.146;2023-02-11T01:31:26;17.50;;;7.07;;
7511;SDS011;9999;48.780;9.146;2023-02-11T01:33:53;16.17;;;7.53;;
7511;SDS011;9999;48.780;9.146;2023-02-11T01:36:20;12.80;;;6.30;;
7511;SDS011;9999;48.780;9.146;2023-02-11T01:38:48;12.60;;;6.90;;
7511;SDS011;9999;48.780;9.146;2023-02-11T01:41:15;12.93;;;6.37;;
7511;SDS011;9999;48.780;9.146;2023-02-11T01:43:42;11.47;;;6.87;;
7511;SDS011;9999;48.780;9.146;2023-02-11T01:46:12;15.90;;;7.10;;
7511;SDS011;9999;48.780;9.146;2023-02-11T01:48:51;12.83;;;7.37;;
7511;SDS011;9999;48.780;9.146;2023-02-11T01:51:23;10.30;;;6.37;;
7511;SDS011;9999;48.780;9.146;2023-02-11T01:53:55;13.53;;;6.33;;
7511;SDS011;9999;48.780;9.146;2023-02-11T01:56:41;15.20;;;6.73;;
7511;SDS011;9999;48.780;9.146;2023-02-11T01:59:29;12.33;;;7.87;;
7511;SDS011;9999;48.780;9.146;2023-02-11T02:02:01;19.70;;;7.07;;
7511;SDS011;9999;48.780;9.146;2023-02-11T02:04:34;10.73;;;5.77;;
7511;SDS011;9999;48.780;9.146;2023-02-11T02:07:07;9.73;;;6.00;;
7511;SDS011;9999;48.780;9.146;2023-02-11T02:09:38;13.03;;;6.63;;
7511;SDS011;9999;48.780;9.146;2023-02-11T02:12:08;16.10;;;7.33;;
7511;SDS011;9999;48.780;9.146;2023-02-11T02:14:36;13.80;;;7.23;;
7511;SDS011;9999;48.780;9.146;2023-02-11T02:17:04;10.90;;;6.37;;
7511;SDS011;9999;48.780;9.146;2023-02-11T02:22:35;15.67;;;7.70;;
7511;SDS011;9999;48.780;9.146;2023-02-11T02:25:29;13.73;;;6.83;;
7511;SDS011;9999;48.780;9.146;2023-02-11T02:28:18;14.40;;;6.43;;
7511;SDS011;9999;48.780;9.146;2023-02-11T02:31:14;10.63;;;6.73;;
7511;SDS011;9999;48.780;9.146;2023-02-11T02:33:54;10.63;;;5.70;;
7511;SDS011;9999;48.780;9.146;2023-02-11T02:36:26;19.03;;;7.43;;
7511;SDS011;9999;48.780;9.146;2023-02-11T02:39:01;16.63;;;8.23;;
7511;SDS011;9999;48.780;9.146;2023-02-11T02:41:31;18.00;;;8.13;;
7511;SDS011;9999;48.780;9.146;2023-02-11T02:44:00;15.63;;;7.53;;
7511;SDS011;9999;48.780;9.146;2023-02-11T02:46:28;13.73;;;7.67;;
7511;SDS011;9999;48.780;9.146;2023-02-11T02:48:58;15.00;;;7.93;;
7511;SDS011;9999;48.780;9.146;2023-02-11T02:54:32;16.70;;;7.97;;
7511;SDS011;9999;48.780;9.146;2023-02-11T02:57:15;14.40;;;7.83;;
7511;SDS011;9999;48.780;9.146;2023-02-11T02:59:56;10.73;;;6.93;;
7511;SDS011;9999;48.780;9.146;2023-02-11T03:02:34;15.43;;;7.07;;
7511;SDS011;9999;48.780;9.146;2023-02-11T03:05:13;14.80;;;8.73;;
7511;SDS011;9999;48.780;9.146;2023-02-11T03:07:44;15.27;;;7.47;;
7511;SDS011;9999;48.780;9.146;2023-02-11T03:10:17;14.23;;;7.23;;
7511;SDS011;9999;48.780;9.146;2023-02-11T03:12:48;14.30;;;8.47;;
7511;SDS011;9999;48.780;9.146;2023-02-11T03:15:15;11.70;;;5.70;;
7511;SDS011;9999;48.780;9.146;2023-02-11T03:17:45;11.03;;;7.00;;
7511;SDS011;9999;48.780;9.146;2023-02-11T03:20:16;14.17;;;6.30;;
7511;SDS011;9999;48.780;9.146;2023-02-11T03:22:46;10.40;;;6.07;;
7511;SDS011;9999;48.780;9.146;2023-02-11T03:25:15;12.77;;;6.20;;
7511;SDS011;9999;48.780;9.146;2023-02-11T03:27:45;14.60;;;6.77;;
7511;SDS011;9999;48.780;9.146;2023-02-11T03:30:16;19.83;;;7.73;;
7511;SDS011;9999;48.780;9.146;2023-02-11T03:32:48;14.77;;;8.07;;
7511;SDS011;9999;48.780;9.146;2023-02-11T03:35:19;17.30;;;7.83;;
7511;SDS011;9999;48.780;9.146;2023-02-11T03:37:49;15.43;;;8.87;;
7511;SDS011;9999;48.780;9.146;2023-02-11T03:40:18;15.07;;;8.00;;
7511;SDS011;9999;48.780;9.146;2023-02-11T03:42:47;9.23;;;5.13;;
7511;SDS011;9999;48.780;9.146;2023-02-11T03:45:18;15.53;;;7.13;;
7511;SDS011;9999;48.780;9.146;2023-02-11T03:47:47;10.07;;;5.93;;
7511;SDS011;9999;48.780;9.146;2023-02-11T03:50:19;9.97;;;5.30;;
7511;SDS011;9999;48.780;9.146;2023-02-11T03:52:48;9.33;;;5.57;;
7511;SDS011;9999;48.780;9.146;2023-02-11T03:55:16;9.97;;;5.70;;
7511;SDS011;9999;48.780;9.146;2023-02-11T03:57:45;9.70;;;5.87;;
7511;SDS011;9999;48.780;9.146;2023-02-11T04:00:13;8.73;;;5.70;;
7511;SDS011;9999;48.780;9.146;2023-02-11T04:02:40;9.93;;;6.47;;
7511;SDS011;9999;48.780;9.146;2023-02-11T04:05:09;11.90;;;5.07;;
7511;SDS011;9999;48.780;9.146;2023-02-11T04:07:39;11.93;;;6.10;;
7511;SDS011;9999;48.780;9.146;2023-02-11T04:10:06;13.67;;;6.97;;
7511;SDS011;9999;48.780;9.146;2023-02-11T04:12:33;14.97;;;6.67;;
7511;SDS011;9999;48.780;9.146;2023-02-11T04:15:00;10.43;;;5.87;;
7511;SDS011;9999;48.780;9.146;2023-02-11T04:17:27;10.60;;;5.53;;
7511;SDS011;9999;48.780;9.146;2023-02-11T04:19:54;14.67;;;5.90;;
7511;SDS011;9999;48.780;9.146;2023-02-11T04:22:21;14.87;;;6.73;;
7511;SDS011;9999;48.780;9.146;2023-02-11T04:24:49;9.43;;;5.73;;
7511;SDS011;9999;48.780;9.146;2023-02-11T04:27:15;12.50;;;7.10;;
7511;SDS011;9999;48.780;9.146;2023-02-11T04:29:42;14.77;;;7.03;;
7511;SDS011;9999;48.780;9.146;2023-02-11T04:32:09;17.00;;;8.00;;
7511;SDS011;9999;48.780;9.146;2023-02-11T04:34:37;15.53;;;8.13;;
7511;SDS011;9999;48.780;9.146;2023-02-11T04:37:04;18.13;;;9.33;;
7511;SDS011;9999;48.780;9.146;2023-02-11T04:39:31;15.17;;;7.17;;
7511;SDS011;9999;48.780;9.146;2023-02-11T04:41:59;12.07;;;6.53;;
7511;SDS011;9999;48.780;9.146;2023-02-11T04:44:26;19.17;;;9.97;;
7511;SDS011;9999;48.780;9.146;2023-02-11T04:46:53;13.87;;;8.53;;
7511;SDS011;9999;48.780;9.146;2023-02-11T04:49:20;15.97;;;8.13;;
7511;SDS011;9999;48.780;9.146;2023-02-11T04:51:47;13.37;;;8.47;;
7511;SDS011;9999;48.780;9.146;2023-02-11T04:54:13;11.63;;;7.83;;
7511;SDS011;9999;48.780;9.146;2023-02-11T04:56:40;12.73;;;8.20;;
7511;SDS011;9999;48.780;9.146;2023-02-11T04:59:08;18.70;;;8.47;;
7511;SDS011;9999;48.780;9.146;2023-02-11T05:01:37;14.97;;;8.00;;
7511;SDS011;9999;48.780;9.146;2023-02-11T05:04:04;17.90;;;9.70;;
7511;SDS011;9999;48.780;9.146;2023-02-11T05:06:31;15.50;;;6.90;;
7511;SDS011;9999;48.780;9.146;2023-02-11T05:08:58;15.03;;;9.47;;
7511;SDS011;9999;48.780;9.146;2023-02-11T05:11:25;16.03;;;7.80;;
7511;SDS011;9999;48.780;9.146;2023-02-11T05:13:52;18.23;;;7.90;;
7511;SDS011;9999;48.780;9.146;2023-02-11T05:16:20;10.77;;;8.00;;
7511;SDS011;9999;48.780;9.146;2023-02-11T05:18:47;13.47;;;7.87;;
7511;SDS011;9999;48.780;9.146;2023-02-11T05:21:15;14.77;;;8.60;;
7511;SDS011;9999;48.780;9.146;2023-02-11T05:23:44;17.17;;;9.17;;
7511;SDS011;9999;48.780;9.146;2023-02-11T05:26:11;17.63;;;8.47;;
7511;SDS011;9999;48.780;9.146;2023-02-11T05:28:39;16.30;;;8.47;;
7511;SDS011;9999;48.780;9.146;2023-02-11T05:31:07;18.50;;;8.73;;
7511;SDS011;9999;48.780;9.146;2023-02-11T05:33:36;13.70;;;8.17;;
7511;SDS011;9999;48.780;9.146;2023-02-11T05:36:03;15.50;;;7.90;;
7511;SDS011;9999;48.780;9.146;2023-02-11T05:38:32;15.17;;;7.80;;
7511;SDS011;9999;48.780;9.146;2023-02-11T05:40:59;13.83;;;7.60;;
7511;SDS011;9999;48.780;9.146;2023-02-11T05:43:26;10.90;;;6.83;;
7511;SDS011;9999;48.780;9.146;2023-02-11T05:45:53;18.00;;;7.20;;
7511;SDS011;9999;48.780;9.146;2023-02-11T05:48:21;11.40;;;7.10;;
7511;SDS011;9999;48.780;9.146;2023-02-11T05:50:49;12.63;;;8.00;;
7511;SDS011;9999;48.780;9.146;2023-02-11T05:53:16;12.00;;;6.43;;
7511;SDS011;9999;48.780;9.146;2023-02-11T05:55:43;17.07;;;8.20;;
7511;SDS011;9999;48.780;9.146;2023-02-11T05:58:10;13.53;;;6.57;;
7511;SDS011;9999;48.780;9.146;2023-02-11T06:00:36;14.70;;;8.63;;
7511;SDS011;9999;48.780;9.146;2023-02-11T06:03:03;12.93;;;7.87;;
7511;SDS011;9999;48.780;9.146;2023-02-11T06:05:30;11.27;;;6.13;;
7511;SDS011;9999;48.780;9.146;2023-02-11T06:07:59;12.87;;;6.80;;
7511;SDS011;9999;48.780;9.146;2023-02-11T06:10:26;12.47;;;6.40;;
7511;SDS011;9999;48.780;9.146;2023-02-11T06:12:53;13.17;;;7.03;;
7511;SDS011;9999;48.780;9.146;2023-02-11T06:15:20;11.17;;;7.40;;
7511;SDS011;9999;48.780;9.146;2023-02-11T06:17:47;14.73;;;6.83;;
7511;SDS011;9999;48.780;9.146;2023-02-11T06:20:14;11.97;;;6.97;;
7511;SDS011;9999;48.780;9.146;2023-02-11T06:22:40;11.67;;;6.37;;
7511;SDS011;9999;48.780;9.146;2023-02-11T06:25:09;12.50;;;7.20;;
7511;SDS011;9999;48.780;9.146;2023-02-11T06:27:36;11.77;;;6.87;;
7511;SDS011;9999;48.780;9.146;2023-02-11T06:30:03;10.40;;;6.40;;
7511;SDS011;9999;48.780;9.146;2023-02-11T06:32:30;13.57;;;7.50;;
7511;SDS011;9999;48.780;9.146;2023-02-11T06:34:57;11.77;;;7.37;;
7511;SDS011;9999;48.780;9.146;2023-02-11T06:37:24;15.67;;;7.10;;
7511;SDS011;9999;48.780;9.146;2023-02-11T06:39:51;10.50;;;6.30;;
7511;SDS011;9999;48.780;9.146;2023-02-11T06:42:19;11.70;;;6.47;;
7511;SDS011;9999;48.780;9.146;2023-02-11T06:44:46;15.07;;;7.67;;
7511;SDS011;9999;48.780;9.146;2023-02-11T06:47:13;11.23;;;7.23;;
7511;SDS011;9999;48.780;9.146;2023-02-11T06:49:40;14.17;;;6.40;;
7511;SDS011;9999;48.780;9.146;2023-02-11T06:52:06;13.00;;;7.63;;
7511;SDS011;9999;48.780;9.146;2023-02-11T06:54:33;16.40;;;6.13;;
7511;SDS011;9999;48.780;9.146;2023-02-11T06:57:00;13.17;;;7.53;;
7511;SDS011;9999;48.780;9.146;2023-02-11T06:59:28;11.10;;;6.47;;
7511;SDS011;9999;48.780;9.146;2023-02-11T07:01:55;13.13;;;7.60;;
7511;SDS011;9999;48.780;9.146;2023-02-11T07:04:22;13.93;;;6.53;;
7511;SDS011;9999;48.780;9.146;2023-02-11T07:06:49;17.17;;;7.40;;
7511;SDS011;9999;48.780;9.146;2023-02-11T07:09:16;12.33;;;7.47;;
7511;SDS011;9999;48.780;9.146;2023-02-11T07:11:42;13.07;;;6.30;;
7511;SDS011;9999;48.780;9.146;2023-02-11T07:14:09;13.27;;;7.07;;
7511;SDS011;9999;48.780;9.146;2023-02-11T07:16:38;12.63;;;7.73;;
7511;SDS011;9999;48.780;9.146;2023-02-11T07:19:05;14.03;;;7.63;;
7511;SDS011;9999;48.780;9.146;2023-02-11T07:21:32;15.63;;;7.37;;
7511;SDS011;9999;48.780;9.146;2023-02-11T07:23:59;12.70;;;6.80;;
7511;SDS011;9999;48.780;9.146;2023-02-11T07:26:26;15.57;;;7.57;;
7511;SDS011;9999;48.780;9.146;2023-02-11T07:28:54;12.53;;;7.47;;
7511;SDS011;9999;48.780;9.146;2023-02-11T07:31:21;11.57;;;6.40;;
7511;SDS011;9999;48.780;9.146;2023-02-11T07:33:52;16.53;;;7.47;;
7511;SDS011;9999;48.780;9.146;2023-02-11T07:36:20;15.77;;;7.13;;
7511;SDS011;9999;48.780;9.146;2023-02-11T07:38:47;14.70;;;7.50;;
7511;SDS011;9999;48.780;9.146;2023-02-11T07:41:15;12.20;;;7.30;;
7511;SDS011;9999;48.780;9.146;2023-02-11T07:43:45;16.93;;;8.60;;
7511;SDS011;9999;48.780;9.146;2023-02-11T07:46:13;13.33;;;7.10;;
7511;SDS011;9999;48.780;9.146;2023-02-11T07:48:41;12.07;;;7.37;;
7511;SDS011;9999;48.780;9.146;2023-02-11T07:51:10;16.53;;;7.20;;
7511;SDS011;9999;48.780;9.146;2023-02-11T07:53:38;12.67;;;6.50;;
7511;SDS011;9999;48.780;9.146;2023-02-11T07:56:06;13.17;;;6.47;;
7511;SDS011;9999;48.780;9.146;2023-02-11T07:58:34;15.27;;;6.40;;
7511;SDS011;9999;48.780;9.146;2023-02-11T08:01:01;11.80;;;7.40;;
7511;SDS011;9999;48.780;9.146;2023-02-11T08:03:29;11.20;;;7.00;;
7511;SDS011;9999;48.780;9.146;2023-02-11T08:05:57;11.03;;;7.53;;
7511;SDS011;9999;48.780;9.146;2023-02-11T08:08:25;14.40;;;6.40;;
7511;SDS011;9999;48.780;9.146;2023-02-11T08:10:52;12.97;;;6.80;;
7511;SDS011;9999;48.780;9.146;2023-02-11T08:13:19;11.70;;;6.67;;
7511;SDS011;9999;48.780;9.146;2023-02-11T08:15:46;10.83;;;6.70;;
7511;SDS011;9999;48.780;9.146;2023-02-11T08:18:13;10.73;;;5.70;;
7511;SDS011;9999;48.780;9.146;2023-02-11T08:20:40;11.07;;;6.10;;
7511;SDS011;9999;48.780;9.146;2023-02-11T08:23:07;11.33;;;6.23;;
7511;SDS011;9999;48.780;9.146;2023-02-11T08:25:35;6.07;;;5.07;;
7511;SDS011;9999;48.780;9.146;2023-02-11T08:28:02;11.13;;;6.50;;
7511;SDS011;9999;48.780;9.146;2023-02-11T08:30:29;13.13;;;4.90;;
7511;SDS011;9999;48.780;9.146;2023-02-11T08:32:56;7.87;;;4.67;;
7511;SDS011;9999;48.780;9.146;2023-02-11T08:35:22;6.83;;;4.70;;
7511;SDS011;9999;48.780;9.146;2023-02-11T08:37:50;7.63;;;5.33;;
7511;SDS011;9999;48.780;9.146;2023-02-11T08:40:17;7.67;;;5.07;;
7511;SDS011;9999;48.780;9.146;2023-02-11T08:42:45;6.30;;;4.83;;
7511;SDS011;9999;48.780;9.146;2023-02-11T08:45:12;8.27;;;5.80;;
7511;SDS011;9999;48.780;9.146;2023-02-11T08:47:39;12.43;;;5.93;;
7511;SDS011;9999;48.780;9.146;2023-02-11T08:50:06;10.50;;;5.90;;
7511;SDS011;9999;48.780;9.146;2023-02-11T08:52:34;12.00;;;7.00;;
7511;SDS011;9999;48.780;9.146;2023-02-11T08:55:01;12.20;;;7.77;;
7511;SDS011;9999;48.780;9.146;2023-02-11T08:57:28;14.07;;;8.03;;
7511;SDS011;9999;48.780;9.146;2023-02-11T08:59:57;12.67;;;7.40;;
7511;SDS011;9999;48.780;9.146;2023-02-11T09:02:24;12.97;;;6.03;;
7511;SDS011;9999;48.780;9.146;2023-02-11T09:04:51;12.40;;;6.73;;
7511;SDS011;9999;48.780;9.146;2023-02-11T09:07:18;11.97;;;6.90;;
7511;SDS011;9999;48.780;9.146;2023-02-11T09:09:44;13.03;;;6.80;;
7511;SDS011;9999;48.780;9.146;2023-02-11T09:12:11;13.47;;;6.63;;
7511;SDS011;9999;48.780;9.146;2023-02-11T09:14:38;8.73;;;5.70;;
7511;SDS011;9999;48.780;9.146;2023-02-11T09:17:07;14.40;;;6.90;;
7511;SDS011;9999;48.780;9.146;2023-02-11T09:19:34;9.00;;;6.10;;
7511;SDS011;9999;48.780;9.146;2023-02-11T09:22:01;13.27;;;6.43;;
7511;SDS011;9999;48.780;9.146;2023-02-11T09:24:28;9.57;;;5.43;;
7511;SDS011;9999;48.780;9.146;2023-02-11T09:26:54;9.73;;;5.93;;
7511;SDS011;9999;48.780;9.146;2023-02-11T09:29:21;11.10;;;6.60;;
7511;SDS011;9999;48.780;9.146;2023-02-11T09:31:48;7.93;;;5.60;;
7511;SDS011;9999;48.780;9.146;2023-02-11T09:34:16;8.90;;;5.20;;
7511;SDS011;9999;48.780;9.146;2023-02-11T09:36:43;8.57;;;5.77;;
7511;SDS011;9999;48.780;9.146;2023-02-11T09:39:11;13.33;;;6.50;;
7511;SDS011;9999;48.780;9.146;2023-02-11T09:41:42;10.17;;;5.37;;
7511;SDS011;9999;48.780;9.146;2023-02-11T09:44:20;9.47;;;5.53;;
7511;SDS011;9999;48.780;9.146;2023-02-11T09:46:54;15.50;;;7.20;;
7511;SDS011;9999;48.780;9.146;2023-02-11T09:49:28;9.77;;;5.20;;
7511;SDS011;9999;48.780;9.146;2023-02-11T09:52:01;10.10;;;5.90;;
7511;SDS011;9999;48.780;9.146;2023-02-11T09:54:33;10.17;;;5.33;;
7511;SDS011;9999;48.780;9.146;2023-02-11T09:57:04;11.43;;;5.30;;
7511;SDS011;9999;48.780;9.146;2023-02-11T09:59:33;8.77;;;5.83;;
7511;SDS011;9999;48.780;9.146;2023-02-11T10:02:01;9.27;;;5.13;;
7511;SDS011;9999;48.780;9.146;2023-02-11T10:04:46;10.13;;;5.50;;
7511;SDS011;9999;48.780;9.146;2023-02-11T10:07:28;7.93;;;5.23;;
7511;SDS011;9999;48.780;9.146;2023-02-11T10:10:03;7.87;;;5.43;;
7511;SDS011;9999;48.780;9.146;2023-02-11T10:12:46;9.27;;;4.77;;
7511;SDS011;9999;48.780;9.146;2023-02-11T10:15:24;9.87;;;5.70;;
7511;SDS011;9999;48.780;9.146;2023-02-11T10:18:00;9.30;;;6.03;;
7511;SDS011;9999;48.780;9.146;2023-02-11T10:20:45;9.80;;;5.77;;
7511;SDS011;9999;48.780;9.146;2023-02-11T10:23:20;9.60;;;5.90;;
7511;SDS011;9999;48.780;9.146;2023-02-11T10:25:50;10.70;;;5.73;;
7511;SDS011;9999;48.780;9.146;2023-02-11T10:28:21;11.67;;;5.73;;
7511;SDS011;9999;48.780;9.146;2023-02-11T10:30:55;6.53;;;4.77;;
7511;SDS011;9999;48.780;9.146;2023-02-11T10:33:25;9.07;;;5.67;;
7511;SDS011;9999;48.780;9.146;2023-02-11T10:35:56;7.97;;;5.27;;
7511;SDS011;9999;48.780;9.146;2023-02-11T10:38:24;11.13;;;6.03;;
7511;SDS011;9999;48.780;9.146;2023-02-11T10:40:51;8.93;;;4.97;;
7511;SDS011;9999;48.780;9.146;2023-02-11T10:43:20;10.03;;;6.43;;
7511;SDS011;9999;48.780;9.146;2023-02-11T10:45:51;11.00;;;5.90;;
7511;SDS011;9999;48.780;9.146;2023-02-11T10:48:36;10.93;;;6.27;;
7511;SDS011;9999;48.780;9.146;2023-02-11T10:51:07;11.83;;;6.27;;
7511;SDS011;9999;48.780;9.146;2023-02-11T10:53:42;13.70;;;5.30;;
7511;SDS011;9999;48.780;9.146;2023-02-11T10:56:10;10.47;;;7.03;;
7511;SDS011;9999;48.780;9.146;2023-02-11T10:58:45;14.80;;;7.93;;
7511;SDS011;9999;48.780;9.146;2023-02-11T11:01:21;14.57;;;7.67;;
7511;SDS011;9999;48.780;9.146;2023-02-11T11:03:48;12.33;;;7.20;;
7511;SDS011;9999;48.780;9.146;2023-02-11T11:06:28;16.07;;;8.37;;
7511;SDS011;9999;48.780;9.146;2023-02-11T11:08:56;14.47;;;8.70;;
7511;SDS011;9999;48.780;9.146;2023-02-11T11:11:24;20.43;;;8.93;;
7511;SDS011;9999;48.780;9.146;2023-02-11T11:13:55;14.47;;;7.27;;
7511;SDS011;9999;48.780;9.146;2023-02-11T11:16:24;13.07;;;7.67;;
7511;SDS011;9999;48.780;9.146;2023-02-11T11:18:53;13.43;;;7.33;;
7511;SDS011;9999;48.780;9.146;2023-02-11T11:21:42;11.00;;;6.87;;
7511;SDS011;9999;48.780;9.146;2023-02-11T11:24:13;12.20;;;7.47;;
7511;SDS011;9999;48.780;9.146;2023-02-11T11:26:44;14.23;;;7.60;;
7511;SDS011;9999;48.780;9.146;2023-02-11T11:29:14;13.13;;;6.50;;
7511;SDS011;9999;48.780;9.146;2023-02-11T11:31:48;11.40;;;6.17;;
7511;SDS011;9999;48.780;9.146;2023-02-11T11:34:19;11.73;;;6.33;;
7511;SDS011;9999;48.780;9.146;2023-02-11T11:36:50;12.47;;;5.20;;
7511;SDS011;9999;48.780;9.146;2023-02-11T11:39:19;10.63;;;5.97;;
7511;SDS011;9999;48.780;9.146;2023-02-11T11:41:52;11.87;;;7.03;;
7511;SDS011;9999;48.780;9.146;2023-02-11T11:44:25;17.43;;;5.80;;
7511;SDS011;9999;48.780;9.146;2023-02-11T11:47:20;11.77;;;6.40;;
7511;SDS011;9999;48.780;9.146;2023-02-11T11:50:04;8.77;;;5.40;;
7511;SDS011;9999;48.780;9.146;2023-02-11T11:52:53;9.90;;;5.80;;
7511;SDS011;9999;48.780;9.146;2023-02-11T11:55:26;9.70;;;6.10;;
7511;SDS011;9999;48.780;9.146;2023-02-11T11:57:56;9.07;;;5.87;;
7511;SDS011;9999;48.780;9.146;2023-02-11T12:00:25;9.00;;;5.57;;
7511;SDS011;9999;48.780;9.146;2023-02-11T12:06:12;9.33;;;5.70;;
7511;SDS011;9999;48.780;9.146;2023-02-11T12:08:53;9.03;;;5.30;;
7511;SDS011;9999;48.780;9.146;2023-02-11T12:11:33;10.70;;;5.83;;
7511;SDS011;9999;48.780;9.146;2023-02-11T12:14:07;7.07;;;4.07;;
7511;SDS011;9999;48.780;9.146;2023-02-11T12:16:48;7.47;;;3.30;;
7511;SDS011;9999;48.780;9.146;2023-02-11T12:22:23;8.60;;;5.10;;
7511;SDS011;9999;48.780;9.146;2023-02-11T12:25:03;10.63;;;5.57;;
7511;SDS011;9999;48.780;9.146;2023-02-11T12:27:43;8.70;;;4.10;;
7511;SDS011;9999;48.780;9.146;2023-02-11T12:30:18;7.90;;;5.13;;
7511;SDS011;9999;48.780;9.146;2023-02-11T12:32:57;13.30;;;5.57;;
7511;SDS011;9999;48.780;9.146;2023-02-11T12:35:35;9.73;;;5.00;;
7511;SDS011;9999;48.780;9.146;2023-02-11T12:41:18;5.72;;;3.53;;
7511;SDS011;9999;48.780;9.146;2023-02-11T12:44:13;6.33;;;3.67;;
7511;SDS011;9999;48.780;9.146;2023-02-11T12:46:52;5.83;;;3.30;;
7511;SDS011;9999;48.780;9.146;2023-02-11T12:49:36;5.70;;;3.63;;
7511;SDS011;9999;48.780;9.146;2023-02-11T12:52:22;5.32;;;3.50;;
7511;SDS011;9999;48.780;9.146;2023-02-11T12:54:57;7.57;;;4.00;;
7511;SDS011;9999;48.780;9.146;2023-02-11T12:57:29;4.63;;;2.63;;
7511;SDS011;9999;48.780;9.146;2023-02-11T12:59:59;5.07;;;3.40;;
7511;SDS011;9999;48.780;9.146;2023-02-11T13:02:33;3.67;;;3.17;;
7511;SDS011;9999;48.780;9.146;2023-02-11T13:05:11;4.20;;;3.33;;
7511;SDS011;9999;48.780;9.146;2023-02-11T13:07:47;4.07;;;3.10;;
7511;SDS011;9999;48.780;9.146;2023-02-11T13:10:22;9.83;;;4.60;;
7511;SDS011;9999;48.780;9.146;2023-02-11T13:13:04;6.20;;;3.60;;
7511;SDS011;9999;48.780;9.146;2023-02-11T13:15:42;5.27;;;3.43;;
7511;SDS011;9999;48.780;9.146;2023-02-11T13:18:13;5.83;;;3.33;;
7511;SDS011;9999;48.780;9.146;2023-02-11T13:20:48;5.30;;;3.43;;
7511;SDS011;9999;48.780;9.146;2023-02-11T13:23:22;5.30;;;3.63;;
7511;SDS011;9999;48.780;9.146;2023-02-11T13:25:56;4.93;;;3.53;;
7511;SDS011;9999;48.780;9.146;2023-02-11T13:28:38;5.43;;;3.43;;
7511;SDS011;9999;48.780;9.146;2023-02-11T13:31:11;9.97;;;4.77;;
7511;SDS011;9999;48.780;9.146;2023-02-11T13:33:41;14.83;;;7.47;;
7511;SDS011;9999;48.780;9.146;2023-02-11T13:36:17;18.43;;;7.47;;
7511;SDS011;9999;48.780;9.146;2023-02-11T13:38:50;15.73;;;8.93;;
7511;SDS011;9999;48.780;9.146;2023-02-11T13:41:29;13.43;;;6.47;;
7511;SDS011;9999;48.780;9.146;2023-02-11T13:44:04;10.90;;;5.87;;
7511;SDS011;9999;48.780;9.146;2023-02-11T13:46:50;12.93;;;6.50;;
7511;SDS011;9999;48.780;9.146;2023-02-11T13:49:22;13.65;;;6.20;;
7511;SDS011;9999;48.780;9.146;2023-02-11T13:51:50;10.17;;;6.30;;
7511;SDS011;9999;48.780;9.146;2023-02-11T13:54:24;12.63;;;5.57;;
7511;SDS011;9999;48.780;9.146;2023-02-11T14:00:05;11.03;;;5.50;;
7511;SDS011;9999;48.780;9.146;2023-02-11T14:06:10;9.60;;;5.27;;
7511;SDS011;9999;48.780;9.146;2023-02-11T14:09:05;15.95;;;6.63;;
7511;SDS011;9999;48.780;9.146;2023-02-11T14:11:51;12.27;;;5.70;;
7511;SDS011;9999;48.780;9.146;2023-02-11T14:14:22;10.40;;;5.65;;
7511;SDS011;9999;48.780;9.146;2023-02-11T14:19:54;14.67;;;6.50;;
7511;SDS011;9999;48.780;9.146;2023-02-11T14:22:24;15.67;;;5.97;;
7511;SDS011;9999;48.780;9.146;2023-02-11T14:24:54;12.17;;;5.63;;
7511;SDS011;9999;48.780;9.146;2023-02-11T14:27:28;13.38;;;6.72;;
7511;SDS011;9999;48.780;9.146;2023-02-11T14:30:08;15.13;;;6.30;;
7511;SDS011;9999;48.780;9.146;2023-02-11T14:32:52;11.37;;;5.67;;
7511;SDS011;9999;48.780;9.146;2023-02-11T14:35:43;12.10;;;5.17;;
7511;SDS011;9999;48.780;9.146;2023-02-11T14:38:23;10.23;;;4.80;;
7511;SDS011;9999;48.780;9.146;2023-02-11T14:41:00;9.97;;;5.23;;
7511;SDS011;9999;48.780;9.146;2023-02-11T14:43:34;13.17;;;5.40;;
7511;SDS011;9999;48.780;9.146;2023-02-11T14:46:04;8.67;;;5.17;;
7511;SDS011;9999;48.780;9.146;2023-02-11T14:48:32;10.83;;;6.13;;
7511;SDS011;9999;48.780;9.146;2023-02-11T14:51:02;9.10;;;4.80;;
7511;SDS011;9999;48.780;9.146;2023-02-11T14:53:32;11.37;;;5.37;;
7511;SDS011;9999;48.780;9.146;2023-02-11T14:56:00;8.37;;;4.73;;
7511;SDS011;9999;48.780;9.146;2023-02-11T14:58:28;8.33;;;4.60;;
7511;SDS011;9999;48.780;9.146;2023-02-11T15:00:57;9.77;;;5.60;;
7511;SDS011;9999;48.780;9.146;2023-02-11T15:03:25;9.07;;;5.47;;
7511;SDS011;9999;48.780;9.146;2023-02-11T15:05:55;7.17;;;4.67;;
7511;SDS011;9999;48.780;9.146;2023-02-11T15:08:28;10.67;;;5.10;;
7511;SDS011;9999;48.780;9.146;2023-02-11T15:10:57;7.00;;;4.50;;
7511;SDS011;9999;48.780;9.146;2023-02-11T15:13:28;7.90;;;5.07;;
7511;SDS011;9999;48.780;9.146;2023-02-11T15:15:58;9.33;;;5.63;;
7511;SDS011;9999;48.780;9.146;2023-02-11T15:18:31;9.70;;;5.07;;
7511;SDS011;9999;48.780;9.146;2023-02-11T15:21:01;11.00;;;6.20;;
7511;SDS011;9999;48.780;9.146;2023-02-11T15:23:29;11.90;;;6.43;;
7511;SDS011;9999;48.780;9.146;2023-02-11T15:25:57;11.63;;;6.50;;
7511;SDS011;9999;48.780;9.146;2023-02-11T15:28:29;12.00;;;7.10;;
7511;SDS011;9999;48.780;9.146;2023-02-11T15:30:59;13.27;;;6.57;;
7511;SDS011;9999;48.780;9.146;2023-02-11T15:33:30;14.20;;;6.60;;
7511;SDS011;9999;48.780;9.146;2023-02-11T15:35:58;12.60;;;6.80;;
7511;SDS011;9999;48.780;9.146;2023-02-11T15:38:25;11.20;;;5.97;;
7511;SDS011;9999;48.780;9.146;2023-02-11T15:40:54;8.97;;;5.33;;
7511;SDS011;9999;48.780;9.146;2023-02-11T15:43:24;10.17;;;5.57;;
7511;SDS011;9999;48.780;9.146;2023-02-11T15:46:06;13.37;;;6.83;;
7511;SDS011;9999;48.780;9.146;2023-02-11T15:48:36;12.27;;;6.07;;
7511;SDS011;9999;48.780;9.146;2023-02-11T15:51:10;14.77;;;6.13;;